createdAt,value
2023-03-04T00:01:01.461Z,-0.58
2023-03-04T00:03:29.520Z,-0.59
2023-03-04T00:05:56.843Z,-0.59
2023-03-04T00:08:24.602Z,-0.56
2023-03-04T00:10:52.111Z,-0.53
2023-03-04T00:13:22.073Z,-0.55
2023-03-04T00:15:49.625Z,-0.49
2023-03-04T00:18:17.376Z,-0.52
2023-03-04T00:20:44.673Z,-0.50
2023-03-04T00:23:12.283Z,-0.50
2023-03-04T00:25:41.926Z,-0.51
2023-03-04T00:28:11.274Z,-0.42
2023-03-04T00:30:39.423Z,-0.39
2023-03-04T00:33:07.016Z,-0.41
2023-03-04T00:35:34.506Z,-0.34
2023-03-04T00:38:01.613Z,-0.30
2023-03-04T00:40:29.492Z,-0.32
2023-03-04T00:42:56.722Z,-0.33
2023-03-04T00:45:24.468Z,-0.29
2023-03-04T00:47:52.312Z,-0.34
2023-03-04T00:50:20.076Z,-0.31
2023-03-04T00:52:47.350Z,-0.28
2023-03-04T00:55:14.946Z,-0.31
2023-03-04T00:57:42.297Z,-0.29
2023-03-04T01:00:10.749Z,-0.36
2023-03-04T01:02:38.086Z,-0.26
2023-03-04T01:05:07.149Z,-0.26
2023-03-04T01:07:34.455Z,-0.18
2023-03-04T01:10:02.354Z,-0.29
2023-03-04T01:12:29.712Z,-0.25
2023-03-04T01:14:57.255Z,-0.22
2023-03-04T01:17:24.523Z,-0.25
2023-03-04T01:19:52.330Z,-0.28
2023-03-04T01:22:20.658Z,-0.18
2023-03-04T01:24:48.910Z,-0.17
2023-03-04T01:27:16.205Z,-0.21
2023-03-04T01:29:44.677Z,-0.19
2023-03-04T01:32:12.162Z,-0.29
2023-03-04T01:34:39.896Z,-0.28
2023-03-04T01:37:07.062Z,-0.20
2023-03-04T01:39:34.677Z,-0.26
2023-03-04T01:42:02.387Z,-0.38
2023-03-04T01:44:30.042Z,-0.34
2023-03-04T01:46:57.489Z,-0.32
2023-03-04T01:49:25.538Z,-0.33
2023-03-04T01:51:54.479Z,-0.27
2023-03-04T01:54:23.215Z,-0.30
2023-03-04T01:56:51.992Z,-0.33
2023-03-04T01:59:25.760Z,-0.34
2023-03-04T02:01:57.859Z,-0.27
2023-03-04T02:04:30.566Z,-0.26
2023-03-04T02:06:58.396Z,-0.27
2023-03-04T02:09:28.871Z,-0.30
2023-03-04T02:11:56.541Z,-0.37
2023-03-04T02:14:24.846Z,-0.27
2023-03-04T02:16:52.521Z,-0.25
2023-03-04T02:19:33.115Z,-0.31
2023-03-04T02:22:00.452Z,-0.24
2023-03-04T02:24:37.525Z,-0.17
2023-03-04T02:27:05.309Z,-0.18
2023-03-04T02:29:33.364Z,-0.18
2023-03-04T02:32:00.839Z,-0.17
2023-03-04T02:34:36.043Z,-0.09
2023-03-04T02:37:04.475Z,-0.11
2023-03-04T02:39:36.190Z,-0.14
2023-03-04T02:42:05.110Z,-0.17
2023-03-04T02:44:41.932Z,-0.14
2023-03-04T02:47:11.709Z,-0.11
2023-03-04T02:49:40.352Z,-0.08
2023-03-04T02:52:19.875Z,-0.11
2023-03-04T02:54:47.904Z,-0.03
2023-03-04T02:57:17.016Z,-0.02
2023-03-04T02:59:48.335Z,-0.02
2023-03-04T03:02:20.252Z,-0.01
2023-03-04T03:04:48.481Z,0.03
2023-03-04T03:07:18.646Z,0.03
2023-03-04T03:09:46.587Z,-0.02
2023-03-04T03:12:13.957Z,-0.03
2023-03-04T03:14:41.879Z,0.04
2023-03-04T03:17:11.934Z,-0.02
2023-03-04T03:19:39.707Z,0.03
2023-03-04T03:22:08.938Z,-0.01
2023-03-04T03:24:37.101Z,0.07
2023-03-04T03:27:04.460Z,0.02
2023-03-04T03:29:32.295Z,0.07
2023-03-04T03:31:59.659Z,0.11
2023-03-04T03:34:27.485Z,0.06
2023-03-04T03:36:54.965Z,0.16
2023-03-04T03:39:22.583Z,0.16
2023-03-04T03:41:50.256Z,0.17
2023-03-04T03:44:18.201Z,0.26
2023-03-04T03:46:46.926Z,0.24
2023-03-04T03:49:14.619Z,0.29
2023-03-04T03:51:41.867Z,0.34
2023-03-04T03:54:09.974Z,0.31
2023-03-04T03:56:37.231Z,0.38
2023-03-04T03:59:04.971Z,0.37
2023-03-04T04:01:33.822Z,0.40
2023-03-04T04:04:01.671Z,0.44
2023-03-04T04:06:28.955Z,0.43
2023-03-04T04:08:56.600Z,0.46
2023-03-04T04:11:23.879Z,0.50
2023-03-04T04:13:51.671Z,0.48
2023-03-04T04:16:19.140Z,0.49
2023-03-04T04:18:46.973Z,0.49
2023-03-04T04:21:14.966Z,0.48
2023-03-04T04:23:42.568Z,0.50
2023-03-04T04:26:09.663Z,0.56
2023-03-04T04:28:37.349Z,0.58
2023-03-04T04:31:08.428Z,0.59
2023-03-04T04:33:37.023Z,0.51
2023-03-04T04:36:05.259Z,0.55
2023-03-04T04:38:33.114Z,0.56
2023-03-04T04:41:00.512Z,0.62
2023-03-04T04:43:28.347Z,0.60
2023-03-04T04:45:55.675Z,0.53
2023-03-04T04:48:23.332Z,0.57
2023-03-04T04:50:55.297Z,0.54
2023-03-04T04:53:23.015Z,0.65
2023-03-04T04:55:50.228Z,0.57
2023-03-04T04:58:17.915Z,0.61
2023-03-04T05:00:45.235Z,0.64
2023-03-04T05:03:12.930Z,0.65
2023-03-04T05:05:40.455Z,0.64
2023-03-04T05:08:08.157Z,0.63
2023-03-04T05:10:35.304Z,0.65
2023-03-04T05:13:03.083Z,0.70
2023-03-04T05:15:30.408Z,0.65
2023-03-04T05:17:58.047Z,0.68
2023-03-04T05:20:25.835Z,0.72
2023-03-04T05:22:53.872Z,0.76
2023-03-04T05:25:21.138Z,0.74
2023-03-04T05:27:48.698Z,0.74
2023-03-04T05:30:16.037Z,0.77
2023-03-04T05:32:43.888Z,0.79
2023-03-04T05:35:11.158Z,0.76
2023-03-04T05:37:38.929Z,0.74
2023-03-04T05:40:06.768Z,0.82
2023-03-04T05:42:34.734Z,0.83
2023-03-04T05:45:02.140Z,0.86
2023-03-04T05:47:29.568Z,0.82
2023-03-04T05:49:58.304Z,0.84
2023-03-04T05:52:25.877Z,0.86
2023-03-04T05:54:53.228Z,0.86
2023-03-04T05:57:20.968Z,0.83
2023-03-04T05:59:48.165Z,0.80
2023-03-04T06:02:16.066Z,0.86
2023-03-04T06:04:43.474Z,0.91
2023-03-04T06:07:11.093Z,0.85
2023-03-04T06:09:38.575Z,0.92
2023-03-04T06:12:06.508Z,0.91
2023-03-04T06:14:33.687Z,0.91
2023-03-04T06:17:01.185Z,0.81
2023-03-04T06:19:28.502Z,0.87
2023-03-04T06:21:56.057Z,0.93
2023-03-04T06:24:23.391Z,0.91
2023-03-04T06:26:51.012Z,0.91
2023-03-04T06:29:18.357Z,0.93
2023-03-04T06:31:46.077Z,0.94
2023-03-04T06:34:13.512Z,0.92
2023-03-04T06:36:41.088Z,0.95
2023-03-04T06:39:09.011Z,0.87
2023-03-04T06:41:36.698Z,0.88
2023-03-04T06:44:04.659Z,0.96
2023-03-04T06:46:33.899Z,0.95
2023-03-04T06:49:02.146Z,0.91
2023-03-04T06:51:30.503Z,0.96
2023-03-04T06:53:57.842Z,0.96
2023-03-04T06:56:25.659Z,1.03
2023-03-04T06:58:53.037Z,0.97
2023-03-04T07:01:21.960Z,1.07
2023-03-04T07:03:50.341Z,1.08
2023-03-04T07:06:21.610Z,1.06
2023-03-04T07:08:49.468Z,1.14
2023-03-04T07:11:17.741Z,1.07
2023-03-04T07:13:45.974Z,1.07
2023-03-04T07:16:18.897Z,1.16
2023-03-04T07:18:47.665Z,1.09
2023-03-04T07:21:16.223Z,1.07
2023-03-04T07:23:44.056Z,1.14
2023-03-04T07:26:12.012Z,1.21
2023-03-04T07:28:39.634Z,1.23
2023-03-04T07:31:12.227Z,1.23
2023-03-04T07:33:39.741Z,1.27
2023-03-04T07:36:07.555Z,1.27
2023-03-04T07:38:34.883Z,1.31
2023-03-04T07:41:03.288Z,1.36
2023-03-04T07:43:30.562Z,1.31
2023-03-04T07:46:02.334Z,1.41
2023-03-04T07:48:30.032Z,1.38
2023-03-04T07:51:11.344Z,1.39
2023-03-04T07:53:40.548Z,1.40
2023-03-04T07:56:09.250Z,1.46
2023-03-04T07:58:36.546Z,1.39
2023-03-04T08:01:10.624Z,1.44
2023-03-04T08:03:37.865Z,1.42
2023-03-04T08:06:07.602Z,1.39
2023-03-04T08:08:35.258Z,1.48
2023-03-04T08:11:07.547Z,1.48
2023-03-04T08:13:35.290Z,1.47
2023-03-04T08:16:04.100Z,1.47
2023-03-04T08:18:31.507Z,1.42
2023-03-04T08:20:59.376Z,1.47
2023-03-04T08:23:26.920Z,1.51
2023-03-04T08:25:54.868Z,1.51
2023-03-04T08:28:22.308Z,1.61
2023-03-04T08:30:53.615Z,1.67
2023-03-04T08:33:20.945Z,1.65
2023-03-04T08:35:48.957Z,1.64
2023-03-04T08:38:16.302Z,1.65
2023-03-04T08:40:43.938Z,1.61
2023-03-04T08:43:11.375Z,1.68
2023-03-04T08:45:39.307Z,1.71
2023-03-04T08:48:06.912Z,1.64
2023-03-04T08:50:34.660Z,1.67
2023-03-04T08:53:01.980Z,1.70
2023-03-04T08:55:29.564Z,1.72
2023-03-04T08:57:56.982Z,1.75
2023-03-04T09:00:24.592Z,1.81
2023-03-04T09:02:52.080Z,1.91
2023-03-04T09:05:19.635Z,1.90
2023-03-04T09:07:47.475Z,1.91
2023-03-04T09:10:15.256Z,1.95
2023-03-04T09:12:42.683Z,1.94
2023-03-04T09:15:12.091Z,2.14
2023-03-04T09:17:40.422Z,2.09
2023-03-04T09:20:10.482Z,2.05
2023-03-04T09:22:38.863Z,2.10
2023-03-04T09:25:12.052Z,2.03
2023-03-04T09:27:40.733Z,1.97
2023-03-04T09:30:09.500Z,2.07
2023-03-04T09:32:37.181Z,2.05
2023-03-04T09:35:05.510Z,1.99
2023-03-04T09:37:33.415Z,2.12
2023-03-04T09:40:00.958Z,2.07
2023-03-04T09:42:34.876Z,2.16
2023-03-04T09:45:04.377Z,2.15
2023-03-04T09:47:34.677Z,2.15
2023-03-04T09:50:06.959Z,2.06
2023-03-04T09:52:52.896Z,1.99
2023-03-04T09:55:28.935Z,1.89
2023-03-04T09:58:34.145Z,1.98
2023-03-04T10:01:31.277Z,1.97
2023-03-04T10:04:00.786Z,2.02
2023-03-04T10:06:29.089Z,2.05
2023-03-04T10:09:00.427Z,2.06
2023-03-04T10:11:43.289Z,1.99
2023-03-04T10:14:22.479Z,1.97
2023-03-04T10:16:56.418Z,1.94
2023-03-04T10:19:45.384Z,1.87
2023-03-04T10:22:19.906Z,1.88
2023-03-04T10:24:48.014Z,1.93
2023-03-04T10:27:17.869Z,1.89
2023-03-04T10:29:46.845Z,1.92
2023-03-04T10:32:18.379Z,1.98
2023-03-04T10:34:46.176Z,1.88
2023-03-04T10:37:14.172Z,1.80
2023-03-04T10:39:42.594Z,1.78
2023-03-04T10:42:16.580Z,1.80
2023-03-04T10:44:52.512Z,1.74
2023-03-04T10:47:21.353Z,1.80
2023-03-04T10:49:57.676Z,1.77
2023-03-04T10:52:33.054Z,1.75
2023-03-04T10:55:16.406Z,1.74
2023-03-04T10:57:45.944Z,1.69
2023-03-04T11:00:19.274Z,1.72
2023-03-04T11:02:47.855Z,1.73
2023-03-04T11:05:15.688Z,1.77
2023-03-04T11:07:59.336Z,1.73
2023-03-04T11:10:30.564Z,1.69
2023-03-04T11:13:07.787Z,1.65
2023-03-04T11:15:48.946Z,1.66
2023-03-04T11:18:18.305Z,1.54
2023-03-04T11:20:49.641Z,1.39
2023-03-04T11:23:23.902Z,1.45
2023-03-04T11:25:58.135Z,1.58
2023-03-04T11:28:40.474Z,1.50
2023-03-04T11:31:17.062Z,1.53
2023-03-04T11:33:57.833Z,1.53
2023-03-04T11:36:51.167Z,1.49
2023-03-04T11:39:33.343Z,1.44
2023-03-04T11:42:49.041Z,1.42
2023-03-04T11:45:53.901Z,1.42
2023-03-04T11:48:37.597Z,1.47
2023-03-04T11:51:19.755Z,1.45
2023-03-04T11:53:56.282Z,1.35
2023-03-04T11:56:35.795Z,1.38
2023-03-04T11:59:35.889Z,1.45
2023-03-04T12:02:19.613Z,1.51
2023-03-04T12:05:19.791Z,1.57
2023-03-04T12:08:06.521Z,1.61
2023-03-04T12:10:52.637Z,1.67
2023-03-04T12:13:42.606Z,1.72
2023-03-04T12:16:47.218Z,1.92
2023-03-04T12:19:39.938Z,2.08
2023-03-04T12:22:41.613Z,2.26
2023-03-04T12:25:17.697Z,2.34
2023-03-04T12:27:51.999Z,2.48
2023-03-04T12:30:53.693Z,2.54
2023-03-04T12:33:24.749Z,2.61
2023-03-04T12:36:04.976Z,2.64
2023-03-04T12:38:44.915Z,2.64
2023-03-04T12:41:35.619Z,2.79
2023-03-04T12:44:22.154Z,2.88
2023-03-04T12:47:11.814Z,2.99
2023-03-04T12:49:57.973Z,3.08
2023-03-04T12:52:47.306Z,3.18
2023-03-04T12:55:17.694Z,3.25
2023-03-04T12:57:46.011Z,3.34
2023-03-04T13:00:13.762Z,3.36
2023-03-04T13:03:00.786Z,3.37
2023-03-04T13:05:37.345Z,3.45
2023-03-04T13:08:31.199Z,3.38
2023-03-04T13:11:27.580Z,3.37
2023-03-04T13:14:03.396Z,3.35
2023-03-04T13:16:33.472Z,3.29
2023-03-04T13:19:01.487Z,3.27
2023-03-04T13:21:31.998Z,3.21
2023-03-04T13:24:32.064Z,2.51
2023-03-04T13:26:59.486Z,1.39
2023-03-04T13:29:27.255Z,0.86
2023-03-04T13:32:05.862Z,0.56
2023-03-04T13:34:48.823Z,0.32
2023-03-04T13:37:36.387Z,0.32
2023-03-04T13:40:24.508Z,0.36
2023-03-04T13:42:51.854Z,0.34
2023-03-04T13:45:39.397Z,0.38
2023-03-04T13:48:24.527Z,0.45
2023-03-04T13:50:52.729Z,0.49
2023-03-04T13:53:47.206Z,0.73
2023-03-04T13:56:24.040Z,0.82
2023-03-04T13:59:01.536Z,0.78
2023-03-04T14:01:33.855Z,0.92
2023-03-04T14:04:05.588Z,1.06
2023-03-04T14:06:33.859Z,1.20
2023-03-04T14:09:15.013Z,1.31
2023-03-04T14:11:43.756Z,1.54
2023-03-04T14:14:13.992Z,1.69
2023-03-04T14:16:48.767Z,1.87
2023-03-04T14:19:25.424Z,2.03
2023-03-04T14:21:53.177Z,2.19
2023-03-04T14:24:22.434Z,2.31
2023-03-04T14:26:50.794Z,2.46
2023-03-04T14:29:26.953Z,2.55
2023-03-04T14:31:56.593Z,2.62
2023-03-04T14:34:32.315Z,2.62
2023-03-04T14:37:00.447Z,2.60
2023-03-04T14:39:30.801Z,2.59
2023-03-04T14:42:04.798Z,2.62
2023-03-04T14:44:36.268Z,2.66
2023-03-04T14:47:30.400Z,2.69
2023-03-04T14:49:57.706Z,2.70
2023-03-04T14:52:48.516Z,2.66
2023-03-04T14:55:15.720Z,2.67
2023-03-04T14:57:45.428Z,2.70
2023-03-04T15:00:27.252Z,2.62
2023-03-04T15:02:57.541Z,2.61
2023-03-04T15:05:28.794Z,2.64
2023-03-04T15:08:29.459Z,2.65
2023-03-04T15:11:02.572Z,2.64
2023-03-04T15:13:42.545Z,2.55
2023-03-04T15:16:11.790Z,2.49
2023-03-04T15:18:40.448Z,2.36
2023-03-04T15:21:19.928Z,2.40
2023-03-04T15:23:47.753Z,2.11
2023-03-04T15:26:15.087Z,1.83
2023-03-04T15:28:43.486Z,1.69
2023-03-04T15:31:21.581Z,1.50
2023-03-04T15:33:49.420Z,1.44
2023-03-04T15:36:19.251Z,1.33
2023-03-04T15:38:50.148Z,1.26
2023-03-04T15:41:27.142Z,1.20
2023-03-04T15:43:55.278Z,1.19
2023-03-04T15:46:23.132Z,1.16
2023-03-04T15:48:50.800Z,1.08
2023-03-04T15:51:21.130Z,0.98
2023-03-04T15:53:54.294Z,0.93
2023-03-04T15:56:27.172Z,0.92
2023-03-04T15:59:15.407Z,0.84
2023-03-04T16:01:43.064Z,0.83
2023-03-04T16:04:18.302Z,0.77
2023-03-04T16:06:47.664Z,0.68
2023-03-04T16:09:17.228Z,0.60
2023-03-04T16:11:47.669Z,0.48
2023-03-04T16:14:16.227Z,0.42
2023-03-04T16:16:44.526Z,0.32
2023-03-04T16:19:12.255Z,0.25
2023-03-04T16:21:40.240Z,0.21
2023-03-04T16:24:14.967Z,0.15
2023-03-04T16:26:42.336Z,0.10
2023-03-04T16:29:10.205Z,-0.04
2023-03-04T16:31:37.605Z,0.02
2023-03-04T16:34:05.396Z,-0.04
2023-03-04T16:36:32.920Z,-0.08
2023-03-04T16:39:03.814Z,-0.09
2023-03-04T16:41:31.398Z,-0.12
2023-03-04T16:44:00.985Z,-0.12
2023-03-04T16:46:28.890Z,-0.14
2023-03-04T16:48:56.711Z,-0.20
2023-03-04T16:51:24.311Z,-0.14
2023-03-04T16:53:55.009Z,-0.15
2023-03-04T16:56:22.940Z,-0.21
2023-03-04T16:58:50.596Z,-0.23
2023-03-04T17:01:29.041Z,-0.25
2023-03-04T17:03:56.922Z,-0.37
2023-03-04T17:06:25.362Z,-0.29
2023-03-04T17:08:53.055Z,-0.36
2023-03-04T17:11:22.437Z,-0.37
2023-03-04T17:13:50.652Z,-0.46
2023-03-04T17:16:18.538Z,-0.51
2023-03-04T17:18:46.368Z,-0.52
2023-03-04T17:21:22.632Z,-0.58
2023-03-04T17:23:50.788Z,-0.61
2023-03-04T17:26:21.190Z,-0.67
2023-03-04T17:28:52.010Z,-0.70
2023-03-04T17:31:20.709Z,-0.69
2023-03-04T17:33:49.179Z,-0.64
2023-03-04T17:36:18.608Z,-0.67
2023-03-04T17:38:46.791Z,-0.70
2023-03-04T17:41:17.566Z,-0.73
2023-03-04T17:43:49.791Z,-0.80
2023-03-04T17:46:20.529Z,-0.87
2023-03-04T17:48:49.001Z,-0.93
2023-03-04T17:51:16.285Z,-0.92
2023-03-04T17:53:43.999Z,-0.98
2023-03-04T17:56:12.187Z,-1.03
2023-03-04T17:58:40.211Z,-1.03
2023-03-04T18:01:16.307Z,-1.08
2023-03-04T18:03:44.199Z,-1.12
2023-03-04T18:06:12.124Z,-1.15
2023-03-04T18:08:39.866Z,-1.25
2023-03-04T18:11:08.074Z,-1.16
2023-03-04T18:13:46.531Z,-1.15
2023-03-04T18:16:16.513Z,-1.20
2023-03-04T18:18:45.331Z,-1.17
2023-03-04T18:21:13.889Z,-1.19
2023-03-04T18:23:47.611Z,-1.38
2023-03-04T18:26:24.942Z,-1.66
2023-03-04T18:28:57.233Z,-1.44
2023-03-04T18:31:35.913Z,-1.64
2023-03-04T18:34:16.536Z,-1.70
2023-03-04T18:36:54.220Z,-1.46
2023-03-04T18:39:31.209Z,-1.56
2023-03-04T18:42:02.074Z,-1.84
2023-03-04T18:44:32.567Z,-1.40
2023-03-04T18:47:03.864Z,-1.88
2023-03-04T18:49:32.488Z,-1.84
2023-03-04T18:52:04.399Z,-1.88
2023-03-04T18:54:32.517Z,-1.67
2023-03-04T18:57:18.830Z,-1.77
2023-03-04T19:00:00.420Z,-1.99
2023-03-04T19:05:53.062Z,-1.90
2023-03-04T19:08:23.611Z,-1.93
2023-03-04T19:10:55.938Z,-1.88
2023-03-04T19:13:30.709Z,-2.09
2023-03-04T19:15:59.626Z,-2.12
2023-03-04T19:18:29.460Z,-1.83
2023-03-04T19:21:00.043Z,-1.97
2023-03-04T19:23:30.835Z,-1.98
2023-03-04T19:25:58.939Z,-2.22
2023-03-04T19:28:29.616Z,-2.25
2023-03-04T19:31:27.685Z,-1.99
2023-03-04T19:34:03.526Z,-2.18
2023-03-04T19:36:34.225Z,-2.30
2023-03-04T19:39:09.809Z,-1.96
2023-03-04T19:41:38.034Z,-1.96
2023-03-04T19:44:05.692Z,-2.10
2023-03-04T19:46:46.952Z,-2.45
2023-03-04T19:49:14.923Z,-2.42
2023-03-04T19:51:46.347Z,-2.21
2023-03-04T19:54:17.370Z,-2.39
2023-03-04T19:56:45.558Z,-2.51
2023-03-04T19:59:16.905Z,-2.53
2023-03-04T20:01:46.126Z,-2.42
2023-03-04T20:04:16.537Z,-2.63
2023-03-04T20:06:49.947Z,-2.65
2023-03-04T20:09:20.487Z,-2.56
2023-03-04T20:11:58.153Z,-2.62
2023-03-04T20:14:28.751Z,-2.70
2023-03-04T20:17:02.989Z,-2.76
2023-03-04T20:19:31.854Z,-2.76
2023-03-04T20:22:09.233Z,-2.81
2023-03-04T20:24:40.446Z,-2.74
2023-03-04T20:27:11.516Z,-2.86
2023-03-04T20:29:39.334Z,-2.77
2023-03-04T20:32:07.245Z,-2.57
2023-03-04T20:34:37.000Z,-2.58
2023-03-04T20:37:04.619Z,-2.59
2023-03-04T20:39:32.989Z,-2.56
2023-03-04T20:42:04.097Z,-2.62
2023-03-04T20:44:31.876Z,-2.65
2023-03-04T20:47:00.462Z,-2.69
2023-03-04T20:49:28.770Z,-2.71
2023-03-04T20:52:00.977Z,-2.74
2023-03-04T20:54:28.763Z,-2.84
2023-03-04T20:56:56.823Z,-2.87
2023-03-04T20:59:24.809Z,-2.82
2023-03-04T21:01:52.714Z,-2.81
2023-03-04T21:04:20.966Z,-2.84
2023-03-04T21:06:51.799Z,-2.91
2023-03-04T21:09:21.682Z,-2.94
2023-03-04T21:11:51.841Z,-2.97
2023-03-04T21:14:23.838Z,-2.96
2023-03-04T21:17:01.160Z,-2.95
2023-03-04T21:19:33.305Z,-2.97
2023-03-04T21:22:02.419Z,-3.02
2023-03-04T21:24:34.211Z,-2.99
2023-03-04T21:27:04.734Z,-3.03
2023-03-04T21:29:32.802Z,-3.02
2023-03-04T21:32:27.463Z,-3.10
2023-03-04T21:34:56.015Z,-3.11
2023-03-04T21:37:24.876Z,-3.08
2023-03-04T21:39:52.706Z,-3.13
2023-03-04T21:42:20.662Z,-3.11
2023-03-04T21:44:50.135Z,-3.16
2023-03-04T21:47:22.812Z,-3.20
2023-03-04T21:49:50.757Z,-3.25
2023-03-04T21:52:20.806Z,-3.33
2023-03-04T21:54:48.478Z,-3.31
2023-03-04T21:57:16.528Z,-3.30
2023-03-04T21:59:44.086Z,-3.36
2023-03-04T22:02:20.988Z,-3.36
2023-03-04T22:04:48.740Z,-3.44
2023-03-04T22:07:16.545Z,-3.47
2023-03-04T22:09:44.023Z,-3.48
2023-03-04T22:12:11.938Z,-3.51
2023-03-04T22:14:39.430Z,-3.52
2023-03-04T22:17:07.280Z,-3.59
2023-03-04T22:19:34.972Z,-3.63
2023-03-04T22:22:02.965Z,-3.65
2023-03-04T22:24:30.325Z,-3.70
2023-03-04T22:27:00.027Z,-3.71
2023-03-04T22:29:27.606Z,-3.72
2023-03-04T22:31:55.347Z,-3.78
2023-03-04T22:34:23.211Z,-3.73
2023-03-04T22:36:50.886Z,-3.79
2023-03-04T22:39:19.611Z,-3.77
2023-03-04T22:41:47.741Z,-3.83
2023-03-04T22:44:15.109Z,-3.82
2023-03-04T22:46:43.867Z,-3.85
2023-03-04T22:49:13.277Z,-3.86
2023-03-04T22:51:43.944Z,-3.89
2023-03-04T22:54:16.131Z,-3.91
2023-03-04T22:56:44.358Z,-3.90
2023-03-04T22:59:12.012Z,-3.99
2023-03-04T23:01:41.056Z,-3.93
2023-03-04T23:04:08.782Z,-3.95
2023-03-04T23:06:37.893Z,-3.95
2023-03-04T23:09:05.312Z,-3.95
2023-03-04T23:11:35.706Z,-3.99
2023-03-04T23:14:06.622Z,-3.99
2023-03-04T23:16:42.634Z,-3.96
2023-03-04T23:19:14.348Z,-4.02
2023-03-04T23:21:42.894Z,-3.99
2023-03-04T23:24:12.008Z,-4.03
2023-03-04T23:26:41.405Z,-4.06
2023-03-04T23:29:11.967Z,-4.07
2023-03-04T23:31:39.888Z,-4.08
2023-03-04T23:34:07.315Z,-4.19
2023-03-04T23:36:37.417Z,-4.19
2023-03-04T23:39:06.537Z,-4.25
2023-03-04T23:41:35.040Z,-4.19
2023-03-04T23:44:02.773Z,-4.24
2023-03-04T23:46:30.650Z,-4.37
2023-03-04T23:48:58.401Z,-4.32
2023-03-04T23:51:28.450Z,-4.30
2023-03-04T23:53:56.450Z,-4.32
2023-03-04T23:56:26.598Z,-4.37
2023-03-04T23:58:54.151Z,-4.37
